Time;durP1;ratioP1;P1;durP2;ratioP2;P2;SDS_P1;SDS_P2;PMS_P1;PMS_P2;Temp;Humidity;BMP_temperature;BMP_pressure;BME280_temperature;BME280_humidity;BME280_pressure;Samples;Min_cycle;Max_cycle;Signal;HPM_P1;HPM_P2
2022/09/15 00:02:07;;;;;;;6.90;5.63;;;;;;;14.62;100.00;98551.31;4867360;29;20021;-85
2022/09/15 00:04:32;;;;;;;7.25;5.70;;;;;;;14.66;100.00;98565.66;4884198;29;20502;-85
2022/09/15 00:06:58;;;;;;;7.47;5.75;;;;;;;14.67;100.00;98577.03;4871833;29;20129;-85
2022/09/15 00:09:25;;;;;;;7.70;5.80;;;;;;;14.76;100.00;98569.59;4882316;29;20479;-85
2022/09/15 00:11:51;;;;;;;7.75;6.00;;;;;;;14.52;100.00;98570.41;4868248;29;20087;-84
2022/09/15 00:14:17;;;;;;;6.82;5.78;;;;;;;14.62;100.00;98561.88;4887344;29;20044;-84
2022/09/15 00:16:43;;;;;;;9.73;6.32;;;;;;;14.71;100.00;98573.72;4896436;29;20054;-85
2022/09/15 00:19:08;;;;;;;8.23;6.00;;;;;;;14.64;100.00;98575.66;4886378;29;20036;-85
2022/09/15 00:21:37;;;;;;;6.57;5.55;;;;;;;14.67;100.00;98572.56;4887751;29;20080;-85
2022/09/15 00:24:06;;;;;;;7.50;5.70;;;;;;;14.46;100.00;98559.97;4888551;29;20051;-84
2022/09/15 00:26:31;;;;;;;9.70;6.35;;;;;;;14.61;100.00;98557.66;4869578;29;20107;-84
2022/09/15 00:28:58;;;;;;;8.13;5.85;;;;;;;14.68;100.00;98560.16;4880358;29;20072;-84
2022/09/15 00:31:26;;;;;;;7.57;5.95;;;;;;;14.64;100.00;98565.09;4882454;29;20057;-84
2022/09/15 00:33:53;;;;;;;7.22;6.00;;;;;;;14.65;100.00;98563.28;4870263;29;20043;-84
2022/09/15 00:36:21;;;;;;;7.45;6.28;;;;;;;14.52;100.00;98556.38;4884951;29;20028;-86
2022/09/15 00:38:46;;;;;;;7.97;6.15;;;;;;;14.41;100.00;98553.53;4880940;29;20033;-85
2022/09/15 00:41:14;;;;;;;9.65;6.03;;;;;;;14.41;100.00;98558.81;4872193;29;20053;-84
2022/09/15 00:43:55;;;;;;;9.80;6.25;;;;;;;14.30;100.00;98556.97;4884436;29;20025;-85
2022/09/15 00:46:30;;;;;;;9.57;6.20;;;;;;;14.25;100.00;98552.41;4855761;29;20041;-85
2022/09/15 00:49:14;;;;;;;8.95;6.72;;;;;;;14.14;100.00;98561.91;4885367;29;20040;-85
2022/09/15 00:51:46;;;;;;;11.77;6.93;;;;;;;14.09;100.00;98545.97;4870654;29;20033;-86
2022/09/15 00:54:17;;;;;;;11.48;7.50;;;;;;;13.95;100.00;98549.84;4903439;29;20140;-85
2022/09/15 00:56:47;;;;;;;10.85;6.50;;;;;;;13.95;100.00;98541.94;4865368;29;20096;-85
2022/09/15 00:59:17;;;;;;;12.05;7.55;;;;;;;13.87;100.00;98543.13;4888461;29;20123;-85
2022/09/15 01:01:45;;;;;;;11.13;8.18;;;;;;;13.88;100.00;98549.19;4884546;29;20119;-84
2022/09/15 01:04:13;;;;;;;13.60;8.02;;;;;;;13.82;100.00;98549.06;4883621;29;20032;-86
2022/09/15 01:06:46;;;;;;;10.10;8.77;;;;;;;13.76;100.00;98542.06;4895406;29;20045;-85
2022/09/15 01:09:27;;;;;;;12.27;7.95;;;;;;;13.75;100.00;98543.06;4883778;29;20127;-86
2022/09/15 01:11:52;;;;;;;11.73;9.27;;;;;;;13.58;100.00;98550.84;4872185;29;20041;-86
2022/09/15 01:14:18;;;;;;;15.75;8.55;;;;;;;13.50;100.00;98554.59;4869698;29;20033;-86
2022/09/15 01:16:52;;;;;;;12.73;8.43;;;;;;;13.56;100.00;98556.38;4884990;29;20037;-86
2022/09/15 01:19:39;;;;;;;16.75;8.75;;;;;;;13.37;100.00;98565.34;4897229;29;20044;-86
2022/09/15 01:22:11;;;;;;;14.20;8.85;;;;;;;13.43;100.00;98564.47;4874841;29;20057;-85
2022/09/15 01:25:09;;;;;;;13.02;8.27;;;;;;;13.45;100.00;98562.41;4904880;29;20105;-85
2022/09/15 01:27:53;;;;;;;12.13;7.47;;;;;;;13.28;100.00;98560.38;4885362;29;20360;-86
2022/09/15 01:30:23;;;;;;;14.02;7.80;;;;;;;13.30;100.00;98544.34;4909872;29;20143;-84
2022/09/15 01:33:03;;;;;;;16.23;8.70;;;;;;;13.28;100.00;98555.09;4909191;29;20043;-83
2022/09/15 01:35:47;;;;;;;15.55;8.55;;;;;;;13.18;100.00;98554.84;4908234;29;20028;-84
2022/09/15 01:38:15;;;;;;;13.15;8.85;;;;;;;13.21;100.00;98549.13;4889776;29;20047;-84
2022/09/15 01:41:01;;;;;;;13.63;7.72;;;;;;;13.10;100.00;98547.22;4905481;29;20126;-83
2022/09/15 01:43:28;;;;;;;16.50;9.38;;;;;;;13.16;100.00;98554.22;4920474;29;20055;-84
2022/09/15 01:45:54;;;;;;;13.27;8.63;;;;;;;13.05;100.00;98555.78;4905874;29;20040;-84
2022/09/15 01:48:24;;;;;;;15.63;8.05;;;;;;;13.10;100.00;98560.41;4928954;29;20047;-83
2022/09/15 01:50:54;;;;;;;15.60;8.40;;;;;;;12.99;100.00;98552.25;4907040;29;20039;-83
2022/09/15 01:53:22;;;;;;;13.52;9.00;;;;;;;12.84;100.00;98557.09;4919183;29;20051;-83
2022/09/15 01:55:48;;;;;;;13.07;9.07;;;;;;;12.89;100.00;98559.06;4892499;29;20036;-84
2022/09/15 01:58:13;;;;;;;17.25;9.05;;;;;;;12.82;100.00;98564.41;4903930;29;20048;-84
2022/09/15 02:00:46;;;;;;;17.00;9.45;;;;;;;12.77;100.00;98541.34;4872012;29;20031;-84
2022/09/15 02:03:24;;;;;;;17.02;9.40;;;;;;;12.85;100.00;98548.94;4904505;29;20031;-83
2022/09/15 02:06:01;;;;;;;16.63;9.68;;;;;;;12.77;100.00;98554.53;4874513;29;20576;-84
2022/09/15 02:08:43;;;;;;;17.55;10.02;;;;;;;12.91;100.00;98546.47;4903965;29;20036;-84
2022/09/15 02:11:16;;;;;;;20.98;10.25;;;;;;;12.90;100.00;98550.94;4907118;29;20029;-84
2022/09/15 02:13:51;;;;;;;15.48;8.90;;;;;;;12.85;100.00;98558.69;4887525;29;20126;-84
2022/09/15 02:16:20;;;;;;;17.38;9.20;;;;;;;12.99;100.00;98557.50;4902370;29;20047;-84
2022/09/15 02:19:13;;;;;;;14.13;9.30;;;;;;;12.98;100.00;98563.81;4890837;29;20128;-85
2022/09/15 02:21:52;;;;;;;17.05;9.18;;;;;;;12.96;100.00;98557.94;4893349;29;20048;-84
2022/09/15 02:24:28;;;;;;;16.17;8.90;;;;;;;12.99;100.00;98554.88;4862554;29;20045;-85
2022/09/15 02:26:56;;;;;;;15.45;8.73;;;;;;;13.08;100.00;98562.47;4878691;29;20039;-83
2022/09/15 02:29:26;;;;;;;21.25;8.80;;;;;;;12.79;100.00;98544.56;4862445;29;20033;-84
2022/09/15 02:31:55;;;;;;;13.75;8.90;;;;;;;12.89;100.00;98545.91;4877630;29;20596;-84
2022/09/15 02:34:30;;;;;;;11.95;7.80;;;;;;;13.02;100.00;98564.16;4862541;29;20036;-84
2022/09/15 02:36:56;;;;;;;11.38;8.30;;;;;;;13.07;100.00;98556.41;4877719;29;20039;-84
2022/09/15 02:39:26;;;;;;;12.77;8.07;;;;;;;12.99;100.00;98557.50;4878873;29;20111;-83
2022/09/15 02:41:52;;;;;;;13.18;7.80;;;;;;;13.04;100.00;98558.66;4878123;29;20041;-84
2022/09/15 02:44:18;;;;;;;11.18;7.68;;;;;;;13.07;100.00;98560.84;4861272;29;20029;-85
2022/09/15 02:46:44;;;;;;;13.05;6.82;;;;;;;13.07;100.00;98563.50;4846598;29;20112;-84
2022/09/15 02:49:09;;;;;;;11.75;6.75;;;;;;;13.06;100.00;98577.69;4878418;29;20115;-84
2022/09/15 02:51:35;;;;;;;10.75;6.65;;;;;;;12.86;100.00;98562.94;4878561;29;20043;-85
2022/09/15 02:54:00;;;;;;;11.25;6.50;;;;;;;12.87;100.00;98582.97;4877719;29;20033;-84
2022/09/15 02:56:26;;;;;;;10.07;6.60;;;;;;;12.90;100.00;98585.16;4877709;29;20040;-85
2022/09/15 02:58:51;;;;;;;9.00;6.28;;;;;;;12.81;100.00;98578.59;4884185;29;20060;-84
2022/09/15 03:01:17;;;;;;;7.80;5.60;;;;;;;12.88;100.00;98589.84;4874085;29;20037;-84
2022/09/15 03:03:44;;;;;;;8.35;5.78;;;;;;;12.89;100.00;98586.19;4876950;29;20440;-84
2022/09/15 03:06:15;;;;;;;15.15;6.45;;;;;;;12.88;100.00;98587.22;4878215;29;20044;-83
2022/09/15 03:08:50;;;;;;;7.47;6.30;;;;;;;12.93;100.00;98590.00;4875964;29;20109;-83
2022/09/15 03:11:18;;;;;;;7.30;6.40;;;;;;;12.84;100.00;98578.94;4878653;29;20551;-83
2022/09/15 03:13:44;;;;;;;13.18;6.05;;;;;;;12.77;100.00;98583.50;4845518;29;20037;-84
2022/09/15 03:16:12;;;;;;;9.60;6.00;;;;;;;13.25;100.00;98587.19;4861517;29;20040;-85
2022/09/15 03:18:38;;;;;;;9.70;5.80;;;;;;;13.45;100.00;98583.50;4878495;29;20040;-85
2022/09/15 03:21:06;;;;;;;9.25;5.97;;;;;;;13.54;100.00;98599.81;4881620;29;20029;-85
2022/09/15 03:23:33;;;;;;;10.85;6.30;;;;;;;13.54;100.00;98597.94;4897812;29;20052;-86
2022/09/15 03:25:58;;;;;;;11.93;6.40;;;;;;;13.37;100.00;98604.88;4870865;29;20033;-86
2022/09/15 03:28:25;;;;;;;9.77;6.10;;;;;;;13.09;100.00;98595.69;4889838;29;20025;-83
2022/09/15 03:30:52;;;;;;;12.38;6.65;;;;;;;12.74;100.00;98593.66;4888967;29;20037;-86
2022/09/15 03:33:18;;;;;;;9.57;6.68;;;;;;;12.84;100.00;98607.91;4887278;29;20040;-85
2022/09/15 03:35:48;;;;;;;12.10;6.50;;;;;;;12.84;100.00;98615.03;4884510;29;20396;-85
2022/09/15 03:38:15;;;;;;;10.88;5.78;;;;;;;12.78;100.00;98611.44;4868717;29;20043;-86
2022/09/15 03:40:41;;;;;;;17.60;6.15;;;;;;;12.86;100.00;98607.72;4888413;29;20037;-84
2022/09/15 03:43:10;;;;;;;9.93;5.70;;;;;;;12.77;100.00;98615.09;4885754;29;20547;-83
2022/09/15 03:45:37;;;;;;;13.40;6.40;;;;;;;12.85;100.00;98611.38;4871097;29;20040;-84
2022/09/15 03:48:05;;;;;;;11.57;6.32;;;;;;;12.82;100.00;98611.81;4886115;29;20045;-86
2022/09/15 03:50:41;;;;;;;11.73;6.38;;;;;;;12.93;100.00;98613.69;4885056;29;20036;-85
2022/09/15 03:53:06;;;;;;;9.80;6.28;;;;;;;12.89;100.00;98617.81;4871363;29;20040;-84
2022/09/15 03:55:32;;;;;;;6.82;6.07;;;;;;;13.09;100.00;98622.03;4886881;29;20032;-84
2022/09/15 03:57:57;;;;;;;7.80;5.30;;;;;;;13.09;100.00;98622.03;4884335;29;20088;-83
2022/09/15 04:00:24;;;;;;;10.40;5.75;;;;;;;13.10;100.00;98613.09;4871879;29;20037;-85
2022/09/15 04:02:51;;;;;;;5.50;4.95;;;;;;;13.18;100.00;98615.47;4885794;29;20040;-84
2022/09/15 04:05:17;;;;;;;7.30;4.50;;;;;;;13.12;100.00;98616.31;4886669;29;20044;-83
2022/09/15 04:07:43;;;;;;;7.18;3.90;;;;;;;13.05;100.00;98626.16;4900679;29;20084;-85
2022/09/15 04:10:09;;;;;;;7.13;4.10;;;;;;;13.00;100.00;98622.34;4873234;29;20480;-85
2022/09/15 04:12:35;;;;;;;5.25;4.05;;;;;;;13.07;100.00;98639.91;4884730;29;20627;-84
2022/09/15 04:15:02;;;;;;;6.07;4.05;;;;;;;13.10;100.00;98628.91;4870462;29;20502;-85
2022/09/15 04:17:28;;;;;;;7.38;3.58;;;;;;;12.82;100.00;98628.41;4880689;29;20036;-85
2022/09/15 04:19:54;;;;;;;12.02;3.67;;;;;;;12.82;100.00;98628.41;4882683;29;20475;-84
2022/09/15 04:22:20;;;;;;;9.27;3.50;;;;;;;12.81;100.00;98615.47;4888868;29;20041;-84
2022/09/15 04:24:49;;;;;;;8.68;3.90;;;;;;;12.79;100.00;98618.31;4905419;29;20036;-83
2022/09/15 04:27:15;;;;;;;12.35;3.58;;;;;;;12.74;100.00;98635.78;4888185;29;20441;-83
2022/09/15 04:29:42;;;;;;;6.18;3.03;;;;;;;12.70;100.00;98638.06;4906505;29;20160;-83
2022/09/15 04:32:08;;;;;;;7.97;3.92;;;;;;;12.98;100.00;98644.66;4906623;29;20036;-84
2022/09/15 04:34:34;;;;;;;7.07;3.63;;;;;;;12.99;100.00;98628.66;4884850;29;20037;-84
2022/09/15 04:37:00;;;;;;;11.98;3.47;;;;;;;13.09;100.00;98629.94;4906602;29;20031;-84
2022/09/15 04:39:25;;;;;;;8.60;3.53;;;;;;;13.00;100.00;98639.97;4890498;29;20035;-84
2022/09/15 04:41:51;;;;;;;6.90;3.47;;;;;;;12.99;100.00;98636.56;4894012;29;20028;-84
2022/09/15 04:44:16;;;;;;;5.88;3.55;;;;;;;12.96;100.00;98633.53;4908984;29;20029;-84
2022/09/15 04:46:42;;;;;;;7.65;3.33;;;;;;;12.93;100.00;98632.13;4889480;29;20051;-84
2022/09/15 04:49:08;;;;;;;7.70;3.53;;;;;;;12.98;100.00;98632.31;4910367;29;20115;-84
2022/09/15 04:51:33;;;;;;;9.30;3.70;;;;;;;13.02;100.00;98631.84;4912894;29;20489;-84
2022/09/15 04:53:59;;;;;;;7.28;3.65;;;;;;;13.25;100.00;98642.53;4911651;29;20106;-85
2022/09/15 04:56:26;;;;;;;3.78;2.95;;;;;;;13.34;100.00;98644.84;4894548;29;20626;-85
2022/09/15 04:58:55;;;;;;;8.60;3.42;;;;;;;13.34;100.00;98652.75;4893119;29;20123;-84
2022/09/15 05:01:23;;;;;;;8.32;3.45;;;;;;;13.21;100.00;98651.91;4911831;29;20110;-84
2022/09/15 05:03:49;;;;;;;8.88;3.70;;;;;;;13.21;100.00;98657.19;4913854;29;20028;-85
2022/09/15 05:06:17;;;;;;;6.85;4.40;;;;;;;13.35;100.00;98654.34;4909465;29;20450;-84
2022/09/15 05:08:45;;;;;;;8.07;4.80;;;;;;;13.34;100.00;98658.84;4894589;29;20036;-84
2022/09/15 05:11:11;;;;;;;7.60;5.28;;;;;;;13.35;100.00;98662.25;4890587;29;20069;-85
2022/09/15 05:13:39;;;;;;;10.68;4.30;;;;;;;13.23;100.00;98654.31;4908248;29;20470;-84
2022/09/15 05:16:12;;;;;;;9.25;4.80;;;;;;;13.06;100.00;98643.56;4916307;29;20052;-85
2022/09/15 05:18:39;;;;;;;7.35;4.40;;;;;;;13.24;100.00;98656.72;4879570;29;20036;-84
2022/09/15 05:21:07;;;;;;;10.63;4.45;;;;;;;13.30;100.00;98660.31;4910693;29;20027;-84
2022/09/15 05:23:34;;;;;;;11.15;4.55;;;;;;;13.26;100.00;98667.03;4910349;29;20049;-83
2022/09/15 05:26:02;;;;;;;6.43;4.50;;;;;;;13.27;100.00;98660.75;4891774;29;20087;-83
2022/09/15 05:28:27;;;;;;;6.75;4.60;;;;;;;13.29;100.00;98656.06;4913232;29;20036;-84
2022/09/15 05:30:54;;;;;;;11.68;4.72;;;;;;;13.35;100.00;98662.25;4893857;29;21564;-82
2022/09/15 05:33:22;;;;;;;10.38;4.45;;;;;;;13.38;100.00;98667.91;4911308;29;20028;-84
2022/09/15 05:35:56;;;;;;;6.28;4.15;;;;;;;13.44;100.00;98674.16;4877542;29;20470;-86
2022/09/15 05:38:25;;;;;;;10.45;4.70;;;;;;;13.38;100.00;98667.13;4913563;29;20515;-83
2022/09/15 05:40:51;;;;;;;9.40;4.55;;;;;;;13.27;100.00;98666.81;4908439;29;20111;-85
2022/09/15 05:43:17;;;;;;;7.03;4.30;;;;;;;13.23;100.00;98678.84;4908961;29;20428;-85
2022/09/15 05:45:43;;;;;;;10.27;5.20;;;;;;;13.17;100.00;98674.47;4909395;29;20032;-83
2022/09/15 05:48:11;;;;;;;10.25;4.50;;;;;;;13.09;100.00;98667.66;4879496;29;20036;-86
2022/09/15 05:50:47;;;;;;;8.40;5.00;;;;;;;13.10;100.00;98681.63;4910023;29;20020;-85
2022/09/15 05:53:13;;;;;;;8.02;4.45;;;;;;;12.95;100.00;98680.13;4889388;29;20048;-83
2022/09/15 05:55:39;;;;;;;13.70;6.32;;;;;;;13.04;100.00;98698.31;4918613;29;20047;-82
2022/09/15 05:58:05;;;;;;;16.35;6.80;;;;;;;12.88;100.00;98692.59;4904363;29;20460;-83
2022/09/15 06:00:30;;;;;;;11.93;5.72;;;;;;;12.82;100.00;98691.63;4909668;29;20028;-83
2022/09/15 06:02:56;;;;;;;11.20;6.10;;;;;;;12.82;100.00;98706.63;4908145;29;20024;-82
2022/09/15 06:05:21;;;;;;;14.48;6.50;;;;;;;12.76;100.00;98691.69;4909360;29;20291;-84
2022/09/15 06:07:47;;;;;;;12.77;6.20;;;;;;;12.79;100.00;98709.72;4903760;29;20088;-81
2022/09/15 06:10:14;;;;;;;12.02;6.35;;;;;;;12.66;100.00;98705.34;4891091;29;20125;-82
2022/09/15 06:12:40;;;;;;;11.13;6.05;;;;;;;12.59;100.00;98692.25;4909362;29;20100;-83
2022/09/15 06:15:05;;;;;;;11.57;5.10;;;;;;;12.65;100.00;98695.81;4908160;29;20048;-83
2022/09/15 06:17:31;;;;;;;16.77;6.15;;;;;;;12.63;100.00;98688.16;4907308;29;20043;-83
2022/09/15 06:19:57;;;;;;;10.43;6.03;;;;;;;12.67;100.00;98693.78;4888859;29;20088;-81
2022/09/15 06:22:23;;;;;;;15.25;5.63;;;;;;;12.80;100.00;98709.47;4899632;29;20049;-79
2022/09/15 06:24:48;;;;;;;8.93;4.85;;;;;;;12.84;100.00;98708.00;4876530;29;20120;-80
2022/09/15 06:27:14;;;;;;;12.95;5.15;;;;;;;12.86;100.00;98703.31;4886943;29;20033;-78
2022/09/15 06:29:39;;;;;;;7.97;4.20;;;;;;;12.93;100.00;98713.00;4888087;29;20137;-80
2022/09/15 06:32:05;;;;;;;10.02;4.60;;;;;;;12.91;100.00;98705.31;4889364;29;20037;-80
2022/09/15 06:34:31;;;;;;;12.15;4.60;;;;;;;13.00;100.00;98717.19;4885688;29;20029;-80
2022/09/15 06:36:58;;;;;;;13.68;4.93;;;;;;;13.05;100.00;98727.06;4891011;29;20044;-81
2022/09/15 06:39:25;;;;;;;10.18;4.63;;;;;;;13.08;100.00;98725.81;4885715;29;20032;-81
2022/09/15 06:41:51;;;;;;;7.18;3.67;;;;;;;13.04;100.00;98722.03;4890727;29;20112;-81
2022/09/15 06:44:17;;;;;;;7.28;3.20;;;;;;;13.14;100.00;98738.13;4887944;29;20507;-79
2022/09/15 06:46:43;;;;;;;7.28;3.33;;;;;;;13.24;100.00;98730.53;4870573;29;20132;-80
2022/09/15 06:49:09;;;;;;;8.02;3.42;;;;;;;13.37;100.00;98734.06;4869714;29;20040;-82
2022/09/15 06:51:35;;;;;;;13.02;3.63;;;;;;;13.25;100.00;98721.59;4873954;29;20049;-83
2022/09/15 06:54:01;;;;;;;7.22;3.65;;;;;;;13.45;100.00;98727.69;4872217;29;20127;-82
2022/09/15 06:56:28;;;;;;;6.07;3.05;;;;;;;13.51;100.00;98746.06;4869892;29;20036;-83
2022/09/15 06:58:57;;;;;;;7.07;2.85;;;;;;;13.54;100.00;98742.97;4869322;29;20032;-81
2022/09/15 07:01:30;;;;;;;6.07;3.05;;;;;;;13.71;100.00;98753.75;4873088;29;20028;-83
2022/09/15 07:03:57;;;;;;;7.63;3.22;;;;;;;13.59;100.00;98736.25;4891994;29;20040;-81
2022/09/15 07:06:23;;;;;;;5.85;3.28;;;;;;;13.55;100.00;98739.31;4886300;29;20123;-82
2022/09/15 07:08:49;;;;;;;9.73;3.38;;;;;;;13.73;100.00;98750.88;4886066;29;20033;-81
2022/09/15 07:11:16;;;;;;;11.05;3.22;;;;;;;13.88;100.00;98760.22;4904652;29;20039;-81
2022/09/15 07:13:42;;;;;;;7.32;2.67;;;;;;;13.78;100.00;98756.31;4886344;29;20135;-82
2022/09/15 07:16:09;;;;;;;5.57;2.80;;;;;;;13.61;100.00;98757.94;4889559;29;20112;-81
2022/09/15 07:18:36;;;;;;;9.48;3.38;;;;;;;13.84;100.00;98760.69;4885360;29;20061;-81
2022/09/15 07:21:05;;;;;;;7.35;2.72;;;;;;;14.00;100.00;98753.19;4874371;29;20120;-82
2022/09/15 07:23:32;;;;;;;9.10;4.38;;;;;;;14.09;100.00;98772.94;4882345;29;20064;-81
2022/09/15 07:26:22;;;;;;;10.75;2.60;;;;;;;14.06;100.00;98764.69;4870717;29;20036;-81
2022/09/15 07:28:54;;;;;;;6.43;3.03;;;;;;;14.19;100.00;98766.31;4901097;29;21532;-81
2022/09/15 07:31:22;;;;;;;7.78;3.22;;;;;;;14.33;100.00;98780.13;4891722;29;20068;-81
2022/09/15 07:33:49;;;;;;;5.70;2.60;;;;;;;14.41;100.00;98775.34;4882608;29;20064;-81
2022/09/15 07:36:15;;;;;;;9.30;2.42;;;;;;;14.46;100.00;98765.94;4873564;29;20040;-81
2022/09/15 07:38:44;;;;;;;7.40;2.92;;;;;;;14.57;100.00;98786.28;4859917;29;20032;-81
2022/09/15 07:41:29;;;;;;;11.50;2.78;;;;;;;14.72;100.00;98788.50;4887687;29;20044;-81
2022/09/15 07:43:57;;;;;;;6.18;2.50;;;;;;;14.67;100.00;98773.31;4866761;29;20040;-81
2022/09/15 07:46:24;;;;;;;8.75;2.60;;;;;;;14.66;100.00;98786.75;4887579;29;20134;-81
2022/09/15 07:48:53;;;;;;;14.88;3.10;;;;;;;14.67;100.00;98773.31;4872766;29;20040;-80
2022/09/15 07:51:19;;;;;;;8.00;3.22;;;;;;;14.89;100.00;98783.34;4885927;29;20050;-80
2022/09/15 07:53:46;;;;;;;4.32;2.13;;;;;;;15.05;100.00;98795.09;4890378;29;20116;-78
2022/09/15 07:56:13;;;;;;;9.65;3.05;;;;;;;15.12;100.00;98782.56;4884458;29;20047;-80
2022/09/15 07:58:39;;;;;;;10.32;2.90;;;;;;;15.16;100.00;98785.56;4903684;29;20045;-81
2022/09/15 08:01:07;;;;;;;4.82;2.42;;;;;;;15.13;100.00;98789.44;4889763;29;20029;-80
2022/09/15 08:03:33;;;;;;;7.45;2.30;;;;;;;15.24;100.00;98774.63;4889800;29;20028;-80
2022/09/15 08:06:00;;;;;;;5.93;2.40;;;;;;;15.19;100.00;98771.06;4883441;29;20095;-80
2022/09/15 08:08:27;;;;;;;9.20;2.30;;;;;;;15.20;100.00;98786.69;4883756;29;20037;-81
2022/09/15 08:10:53;;;;;;;8.90;2.47;;;;;;;15.30;100.00;98785.28;4891786;29;20043;-81
2022/09/15 08:13:18;;;;;;;6.60;2.20;;;;;;;15.30;100.00;98790.59;4889015;29;20040;-81
2022/09/15 08:15:45;;;;;;;8.25;2.38;;;;;;;15.12;100.00;98793.13;4871975;29;20036;-80
2022/09/15 08:18:11;;;;;;;7.80;2.30;;;;;;;15.14;100.00;98795.56;4870224;29;20559;-80
2022/09/15 08:20:50;;;;;;;10.15;2.40;;;;;;;15.05;100.00;98802.22;4862468;29;20037;-81
2022/09/15 08:23:16;;;;;;;4.97;2.28;;;;;;;15.04;100.00;98800.59;4889176;29;20040;-80
2022/09/15 08:25:42;;;;;;;5.88;2.80;;;;;;;15.14;100.00;98792.91;4877679;29;20446;-80
2022/09/15 08:28:07;;;;;;;8.57;2.70;;;;;;;15.24;100.00;98808.19;4885468;29;20032;-79
2022/09/15 08:30:33;;;;;;;7.88;2.33;;;;;;;15.24;100.00;98806.34;4886826;29;20509;-78
2022/09/15 08:32:58;;;;;;;11.85;2.78;;;;;;;15.15;100.00;98805.09;4885018;29;20033;-79
2022/09/15 08:35:24;;;;;;;6.50;2.33;;;;;;;15.49;100.00;98815.06;4886514;29;20032;-79
2022/09/15 08:37:53;;;;;;;6.22;2.47;;;;;;;15.27;100.00;98808.53;4883274;29;20060;-80
2022/09/15 08:40:22;;;;;;;12.05;2.92;;;;;;;15.55;100.00;98814.94;4870172;29;20036;-80
2022/09/15 08:42:52;;;;;;;8.23;2.55;;;;;;;15.33;100.00;98811.28;4872348;29;20443;-79
2022/09/15 08:45:34;;;;;;;9.55;2.90;;;;;;;15.44;100.00;98815.75;4851546;29;20067;-79
2022/09/15 08:48:03;;;;;;;4.85;2.42;;;;;;;15.60;100.00;98818.72;4879268;29;20033;-80
2022/09/15 08:50:34;;;;;;;3.17;2.15;;;;;;;15.67;100.00;98827.34;4884447;29;20043;-81
2022/09/15 08:53:21;;;;;;;5.07;2.10;;;;;;;16.00;100.00;98828.56;4868979;29;20505;-81
2022/09/15 08:55:54;;;;;;;3.40;2.10;;;;;;;15.98;100.00;98834.06;4872416;29;20371;-79
2022/09/15 08:58:35;;;;;;;8.55;2.15;;;;;;;16.29;100.00;98825.91;4868949;29;20041;-80
2022/09/15 09:01:09;;;;;;;4.65;2.05;;;;;;;16.16;100.00;98836.78;4899382;29;20128;-80
2022/09/15 09:03:51;;;;;;;3.65;2.00;;;;;;;16.35;100.00;98846.16;4886753;29;20020;-80
2022/09/15 09:06:38;;;;;;;14.43;2.50;;;;;;;16.45;100.00;98839.41;4881814;29;20389;-81
2022/09/15 09:09:05;;;;;;;3.53;2.03;;;;;;;16.56;100.00;98843.88;4882712;29;20032;-80
2022/09/15 09:11:52;;;;;;;8.02;2.40;;;;;;;16.53;100.00;98854.94;4887428;29;20045;-82
2022/09/15 09:14:23;;;;;;;7.28;2.10;;;;;;;16.72;100.00;98857.38;4885299;29;20067;-81
2022/09/15 09:17:10;;;;;;;8.75;2.53;;;;;;;16.93;100.00;98854.03;4879286;29;20077;-85
2022/09/15 09:19:49;;;;;;;3.85;2.17;;;;;;;17.19;100.00;98849.13;4858861;29;20032;-84
2022/09/15 09:22:20;;;;;;;5.82;2.40;;;;;;;17.06;100.00;98841.50;4891367;29;20455;-84
2022/09/15 09:24:50;;;;;;;7.22;2.60;;;;;;;17.31;100.00;98853.56;4913052;29;20036;-85
2022/09/15 09:27:20;;;;;;;3.97;2.53;;;;;;;17.67;100.00;98861.97;4883776;29;20047;-84
2022/09/15 09:29:58;;;;;;;4.78;3.00;;;;;;;17.56;100.00;98845.94;4869928;29;20047;-84
2022/09/15 09:32:29;;;;;;;8.95;3.13;;;;;;;17.31;100.00;98841.06;4884852;29;20044;-84
2022/09/15 09:35:21;;;;;;;6.53;2.85;;;;;;;17.54;100.00;98852.53;4885059;29;20096;-85
2022/09/15 09:37:48;;;;;;;7.13;2.70;;;;;;;17.45;100.00;98846.06;4901477;29;20071;-85
2022/09/15 09:40:14;;;;;;;3.90;2.47;;;;;;;17.23;100.00;98847.59;4901572;29;20044;-85
2022/09/15 09:42:41;;;;;;;5.05;2.65;;;;;;;17.32;100.00;98852.50;4916433;29;20475;-84
2022/09/15 09:45:15;;;;;;;8.68;2.90;;;;;;;17.28;100.00;98847.66;4884862;29;20083;-85
2022/09/15 09:48:01;;;;;;;5.47;2.83;;;;;;;17.03;100.00;98832.19;4901785;29;20095;-85
2022/09/15 09:50:31;;;;;;;7.03;2.85;;;;;;;17.38;100.00;98854.19;4847870;29;20057;-85
2022/09/15 09:53:20;;;;;;;7.60;2.80;;;;;;;17.43;100.00;98854.25;4878077;29;20053;-85
2022/09/15 09:55:46;;;;;;;9.88;3.63;;;;;;;17.22;100.00;98840.69;4878801;29;20037;-85
2022/09/15 09:58:17;;;;;;;4.32;2.65;;;;;;;17.22;100.00;98846.00;4867024;29;20040;-84
2022/09/15 10:00:43;;;;;;;7.85;3.20;;;;;;;17.00;100.00;98832.69;4868950;29;20040;-84
2022/09/15 10:03:14;;;;;;;4.95;2.58;;;;;;;17.62;100.00;98852.13;4884079;29;20386;-85
2022/09/15 10:05:41;;;;;;;7.28;3.15;;;;;;;17.60;100.00;98850.75;4901419;29;20607;-85
2022/09/15 10:08:18;;;;;;;8.88;3.13;;;;;;;17.78;100.00;98847.81;4883720;29;20045;-85
2022/09/15 10:11:02;;;;;;;6.47;3.10;;;;;;;17.87;100.00;98850.00;4884316;29;20543;-85
2022/09/15 10:13:28;;;;;;;4.65;2.90;;;;;;;17.88;100.00;98851.63;4882150;29;20507;-85
2022/09/15 10:15:58;;;;;;;6.35;2.70;;;;;;;17.92;100.00;98855.41;4865594;29;20048;-85
2022/09/15 10:18:36;;;;;;;9.57;6.10;;;;;;;17.67;100.00;98843.41;4882416;29;20037;-85
2022/09/15 10:21:04;;;;;;;5.00;3.10;;;;;;;17.79;100.00;98848.63;4865798;29;20132;-84
2022/09/15 10:23:32;;;;;;;5.93;3.20;;;;;;;17.00;100.00;98853.91;4895632;29;20499;-85
2022/09/15 10:26:19;;;;;;;4.63;3.00;;;;;;;17.15;100.00;98855.97;4884738;29;20036;-85
2022/09/15 10:29:12;;;;;;;7.68;3.30;;;;;;;17.36;98.14;98850.97;4900736;29;20040;-84
2022/09/15 10:31:38;;;;;;;4.53;3.30;;;;;;;17.65;98.13;98843.66;4900812;29;20475;-85
2022/09/15 10:34:24;;;;;;;5.82;3.08;;;;;;;18.11;97.03;98848.75;4900378;29;20032;-85
2022/09/15 10:36:53;;;;;;;6.60;3.20;;;;;;;18.06;98.91;98843.38;4900348;29;20088;-83
2022/09/15 10:39:55;;;;;;;6.00;3.13;;;;;;;18.11;97.69;98845.28;4882779;29;20490;-84
2022/09/15 10:42:47;;;;;;;5.75;3.17;;;;;;;17.92;93.93;98826.19;4900471;29;20032;-84
2022/09/15 10:45:32;;;;;;;7.15;2.90;;;;;;;17.66;91.17;98825.88;4914165;29;20036;-84
2022/09/15 10:48:20;;;;;;;5.40;3.13;;;;;;;17.69;90.05;98836.81;4919451;29;20064;-85
2022/09/15 10:51:00;;;;;;;5.32;2.72;;;;;;;17.74;89.49;98836.09;4929879;29;20549;-85
2022/09/15 10:53:37;;;;;;;6.30;3.05;;;;;;;18.22;90.27;98851.50;4900842;29;20123;-85
2022/09/15 10:56:28;;;;;;;5.88;3.30;;;;;;;18.16;87.29;98839.22;4884017;29;20163;-85
2022/09/15 10:59:19;;;;;;;4.72;3.00;;;;;;;18.06;87.67;98848.69;4885117;29;20450;-84
2022/09/15 11:02:09;;;;;;;5.38;2.72;;;;;;;17.77;88.22;98842.72;4888052;29;20398;-83
2022/09/15 11:04:43;;;;;;;4.47;2.85;;;;;;;17.37;89.51;98834.00;4904422;29;20060;-84
2022/09/15 11:07:09;;;;;;;4.40;2.70;;;;;;;17.19;86.38;98845.66;4910152;29;20096;-84
2022/09/15 11:09:56;;;;;;;4.20;2.88;;;;;;;16.76;84.90;98847.91;4907964;29;20036;-83
2022/09/15 11:12:30;;;;;;;3.72;2.92;;;;;;;16.36;83.55;98852.25;4906310;29;20076;-83
2022/09/15 11:15:29;;;;;;;4.45;2.65;;;;;;;16.39;83.69;98847.28;4891582;29;20035;-83
2022/09/15 11:18:00;;;;;;;5.13;2.70;;;;;;;16.44;82.19;98840.47;4909546;29;20052;-83
2022/09/15 11:21:09;;;;;;;7.80;2.50;;;;;;;17.06;82.26;98862.72;4909587;29;20040;-84
2022/09/15 11:23:45;;;;;;;5.55;2.55;;;;;;;17.70;83.61;98845.59;4902993;29;20380;-84
2022/09/15 11:26:43;;;;;;;5.50;2.78;;;;;;;17.34;81.54;98863.69;4919957;29;20029;-84
2022/09/15 11:29:24;;;;;;;3.47;2.67;;;;;;;17.56;82.11;98861.88;4878640;29;20639;-84
2022/09/15 11:31:59;;;;;;;7.10;2.85;;;;;;;17.31;80.19;98859.66;4909588;29;20047;-84
2022/09/15 11:34:33;;;;;;;5.07;2.40;;;;;;;17.65;78.65;98856.94;4903221;29;20483;-83
2022/09/15 11:37:04;;;;;;;4.65;2.50;;;;;;;17.77;79.89;98853.34;4928586;29;20047;-83
2022/09/15 11:39:49;;;;;;;3.38;2.78;;;;;;;17.51;79.79;98853.84;4899840;29;20542;-83
2022/09/15 11:42:37;;;;;;;6.05;2.97;;;;;;;17.78;79.01;98866.38;4906559;29;20119;-84